OOCL Malaysia — VRME7 — position and weather

sailwx.info

Track history (hours):
 
Tides and Currents Weather Stations Pressure Air Temp Water Temp Dewpoint Dewpoint Depression Visibility Wind Speed Wind Dir Waves Ship Positions

OOCL Malaysia

Last reported at 2018-Apr-14 00:25 UTC. Time now 2018-Apr-20 01:25 UTC.
Position N 31°24' E 032°19'.

Length 366 m; draft 12.5 m.

Type: Cargo ship. MMSI: 477220100.

Date/timePositionNaut miles runAvg speedWind from/ knotsBaromVisibWave heightAir tempDewpointWater temp
2018-Apr-14 00:25N 31°24' E 032°19'0 0.0
2018-Apr-13 23:53N 31°24' E 032°19'0 0.0
2018-Apr-13 23:22N 31°24' E 032°19'0 0.0
2018-Apr-13 22:58N 31°24' E 032°19'0 0.0
2018-Apr-13 22:28N 31°24' E 032°19'0 0.0
2018-Apr-13 21:58N 31°24' E 032°19'0 0.0
2018-Apr-13 21:28N 31°24' E 032°19'0 0.2
2018-Apr-13 21:00N 31°24' E 032°19'1 2.1
2018-Apr-13 20:30N 31°24' E 032°18'3 5.3
2018-Apr-13 19:58N 31°27' E 032°16'4 9.2
2018-Apr-13 19:30N 31°30' E 032°14'712.8
2018-Apr-13 18:58N 31°35' E 032°08'715.3
2018-Apr-13 18:30N 31°40' E 032°02'815.3
2018-Apr-13 18:00N 31°45' E 031°55'918.1
2018-Apr-13 17:30N 31°48' E 031°45'1018.5
2018-Apr-13 16:58N 31°51' E 031°34'918.5
2018-Apr-13 16:30N 31°54' E 031°25'918.4
2018-Apr-13 16:00N 31°57' E 031°14'2219.6
2018-Apr-13 14:53N 32°04' E 030°50'1120.5
2018-Apr-13 14:21N 32°07' E 030°37'720.3
2018-Apr-13 14:00N 32°09' E 030°29'1020.1
2018-Apr-13 13:30N 32°12' E 030°18'1020.1
2018-Apr-13 13:00N 32°15' E 030°07'1320.1
2018-Apr-13 12:23N 32°19' E 029°53'720.1
2018-Apr-13 12:00N 32°21' E 029°44'1020.2
2018-Apr-13 11:30N 32°25' E 029°33'1019.8
2018-Apr-13 11:00N 32°27' E 029°22'1019.3
2018-Apr-13 10:30N 32°30' E 029°11'4119.3
2018-Apr-13 08:23N 32°43' E 028°24'719.7
2018-Apr-13 08:00N 32°46' E 028°16'2219.8
2018-Apr-13 06:54N 32°52' E 027°51'819.7
2018-Apr-13 06:30N 32°55' E 027°42'1019.5
2018-Apr-13 06:00N 32°58' E 027°31'65019.9
2018-Apr-11 21:17N 36°15' E 014°59'619.3
2018-Apr-11 20:57N 36°17' E 014°51'919.6
2018-Apr-11 20:30N 36°19' E 014°41'918.1
2018-Apr-11 20:00N 36°22' E 014°30'1221.7
2018-Apr-11 19:26N 36°26' E 014°15'715.7
2018-Apr-11 19:00N 36°28' E 014°07'918.1
2018-Apr-11 18:30N 36°31' E 013°56'1120.4
2018-Apr-11 17:57N 36°34' E 013°43'817.3
2018-Apr-11 17:30N 36°37' E 013°34'1021.2
2018-Apr-11 17:00N 36°40' E 013°22'918.5
2018-Apr-11 16:30N 36°42' E 013°10'88720.5
2018-Apr-09 21:19N 35°59' W 005°09'722.9
2018-Apr-09 21:00N 35°59' W 005°18'  
2018-Apr-07 13:50N 39°42' W 027°29'1420.0
2018-Apr-07 13:07N 39°44' W 027°48'319.7
2018-Apr-07 12:59N 39°44' W 027°51'919.8
2018-Apr-07 12:30N 39°45' W 028°03'1119.7
2018-Apr-07 11:58N 39°47' W 028°17'1019.9
2018-Apr-07 11:29N 39°48' W 028°30'919.7
2018-Apr-07 11:00N 39°49' W 028°42'1119.6
2018-Apr-07 10:27N 39°50' W 028°56'919.7
2018-Apr-07 10:00N 39°51' W 029°07'1119.9
2018-Apr-07 09:26N 39°52' W 029°22'920.5
2018-Apr-07 09:00N 39°53' W 029°33'1020.5
2018-Apr-07 08:30N 39°54' W 029°46'1120.1
2018-Apr-07 07:58N 39°55' W 030°01'919.9
2018-Apr-07 07:29N 39°56' W 030°13'1019.8
2018-Apr-07 06:58N 39°57' W 030°26'1820.2
2018-Apr-07 06:04N 39°59' W 030°50'3519.8
2018-Apr-07 04:18N 39°59' W 031°35'620.0
2018-Apr-07 04:00N 39°59' W 031°43'1020.0
2018-Apr-07 03:30N 39°59' W 031°56'1020.4
2018-Apr-07 03:00N 39°58' W 032°10'  
Track history (hours):
 
Tides and Currents Weather Stations Pressure Air Temp Water Temp Dewpoint Dewpoint Depression Visibility Wind Speed Wind Dir Waves Ship Positions

OOCL Malaysia

Last reported at 2018-Apr-14 00:25 UTC. Time now 2018-Apr-20 01:25 UTC.
Position N 31°24' E 032°19'.

Length 366 m; draft 12.5 m.

Type: Cargo ship. MMSI: 477220100.

Date/timePositionNaut miles runAvg speedWind from/ knotsBaromVisibWave heightAir tempDewpointWater temp
2018-Apr-14 00:25N 31°24' E 032°19'0 0.0
2018-Apr-13 23:53N 31°24' E 032°19'0 0.0
2018-Apr-13 23:22N 31°24' E 032°19'0 0.0
2018-Apr-13 22:58N 31°24' E 032°19'0 0.0
2018-Apr-13 22:28N 31°24' E 032°19'0 0.0
2018-Apr-13 21:58N 31°24' E 032°19'0 0.0
2018-Apr-13 21:28N 31°24' E 032°19'0 0.2
2018-Apr-13 21:00N 31°24' E 032°19'1 2.1
2018-Apr-13 20:30N 31°24' E 032°18'3 5.3
2018-Apr-13 19:58N 31°27' E 032°16'4 9.2
2018-Apr-13 19:30N 31°30' E 032°14'712.8
2018-Apr-13 18:58N 31°35' E 032°08'715.3
2018-Apr-13 18:30N 31°40' E 032°02'815.3
2018-Apr-13 18:00N 31°45' E 031°55'918.1
2018-Apr-13 17:30N 31°48' E 031°45'1018.5
2018-Apr-13 16:58N 31°51' E 031°34'918.5
2018-Apr-13 16:30N 31°54' E 031°25'918.4
2018-Apr-13 16:00N 31°57' E 031°14'2219.6
2018-Apr-13 14:53N 32°04' E 030°50'1120.5
2018-Apr-13 14:21N 32°07' E 030°37'720.3
2018-Apr-13 14:00N 32°09' E 030°29'1020.1
2018-Apr-13 13:30N 32°12' E 030°18'1020.1
2018-Apr-13 13:00N 32°15' E 030°07'1320.1
2018-Apr-13 12:23N 32°19' E 029°53'720.1
2018-Apr-13 12:00N 32°21' E 029°44'1020.2
2018-Apr-13 11:30N 32°25' E 029°33'1019.8
2018-Apr-13 11:00N 32°27' E 029°22'1019.3
2018-Apr-13 10:30N 32°30' E 029°11'4119.3
2018-Apr-13 08:23N 32°43' E 028°24'719.7
2018-Apr-13 08:00N 32°46' E 028°16'2219.8
2018-Apr-13 06:54N 32°52' E 027°51'819.7
2018-Apr-13 06:30N 32°55' E 027°42'1019.5
2018-Apr-13 06:00N 32°58' E 027°31'65019.9
2018-Apr-11 21:17N 36°15' E 014°59'619.3
2018-Apr-11 20:57N 36°17' E 014°51'919.6
2018-Apr-11 20:30N 36°19' E 014°41'918.1
2018-Apr-11 20:00N 36°22' E 014°30'1221.7
2018-Apr-11 19:26N 36°26' E 014°15'715.7
2018-Apr-11 19:00N 36°28' E 014°07'918.1
2018-Apr-11 18:30N 36°31' E 013°56'1120.4
2018-Apr-11 17:57N 36°34' E 013°43'817.3
2018-Apr-11 17:30N 36°37' E 013°34'1021.2
2018-Apr-11 17:00N 36°40' E 013°22'918.5
2018-Apr-11 16:30N 36°42' E 013°10'88720.5
2018-Apr-09 21:19N 35°59' W 005°09'722.9
2018-Apr-09 21:00N 35°59' W 005°18'  
2018-Apr-07 13:50N 39°42' W 027°29'1420.0
2018-Apr-07 13:07N 39°44' W 027°48'319.7
2018-Apr-07 12:59N 39°44' W 027°51'919.8
2018-Apr-07 12:30N 39°45' W 028°03'1119.7
2018-Apr-07 11:58N 39°47' W 028°17'1019.9
2018-Apr-07 11:29N 39°48' W 028°30'919.7
2018-Apr-07 11:00N 39°49' W 028°42'1119.6
2018-Apr-07 10:27N 39°50' W 028°56'919.7
2018-Apr-07 10:00N 39°51' W 029°07'1119.9
2018-Apr-07 09:26N 39°52' W 029°22'920.5
2018-Apr-07 09:00N 39°53' W 029°33'1020.5
2018-Apr-07 08:30N 39°54' W 029°46'1120.1
2018-Apr-07 07:58N 39°55' W 030°01'919.9
2018-Apr-07 07:29N 39°56' W 030°13'1019.8
2018-Apr-07 06:58N 39°57' W 030°26'1820.2
2018-Apr-07 06:04N 39°59' W 030°50'3519.8
2018-Apr-07 04:18N 39°59' W 031°35'620.0
2018-Apr-07 04:00N 39°59' W 031°43'1020.0
2018-Apr-07 03:30N 39°59' W 031°56'1020.4
2018-Apr-07 03:00N 39°58' W 032°10'  

Dump ship's entire track history